sensor_id;sensor_type;location;lat;lon;timestamp;P1;durP1;ratioP1;P2;durP2;ratioP2
5042;SDS011;2540;50.928;6.856;2023-05-09T00:00:31;16.93;;;11.07;;
5042;SDS011;2540;50.928;6.856;2023-05-09T00:02:57;12.83;;;9.57;;
5042;SDS011;2540;50.928;6.856;2023-05-09T00:05:22;14.20;;;10.17;;
5042;SDS011;2540;50.928;6.856;2023-05-09T00:07:48;21.33;;;11.90;;
5042;SDS011;2540;50.928;6.856;2023-05-09T00:10:13;15.60;;;9.70;;
5042;SDS011;2540;50.928;6.856;2023-05-09T00:12:39;14.50;;;10.00;;
5042;SDS011;2540;50.928;6.856;2023-05-09T00:15:05;20.47;;;12.10;;
5042;SDS011;2540;50.928;6.856;2023-05-09T00:17:32;26.50;;;11.33;;
5042;SDS011;2540;50.928;6.856;2023-05-09T00:19:58;16.50;;;10.90;;
5042;SDS011;2540;50.928;6.856;2023-05-09T00:22:25;14.43;;;10.70;;
5042;SDS011;2540;50.928;6.856;2023-05-09T00:24:51;15.97;;;11.23;;
5042;SDS011;2540;50.928;6.856;2023-05-09T00:27:16;17.93;;;11.03;;
5042;SDS011;2540;50.928;6.856;2023-05-09T00:29:42;20.00;;;11.97;;
5042;SDS011;2540;50.928;6.856;2023-05-09T00:32:07;17.53;;;10.90;;
5042;SDS011;2540;50.928;6.856;2023-05-09T00:34:33;18.93;;;11.80;;
5042;SDS011;2540;50.928;6.856;2023-05-09T00:36:59;19.50;;;12.97;;
5042;SDS011;2540;50.928;6.856;2023-05-09T00:39:24;18.70;;;11.97;;
5042;SDS011;2540;50.928;6.856;2023-05-09T00:41:50;17.23;;;12.10;;
5042;SDS011;2540;50.928;6.856;2023-05-09T00:44:16;20.87;;;13.20;;
5042;SDS011;2540;50.928;6.856;2023-05-09T00:46:42;16.20;;;11.60;;
5042;SDS011;2540;50.928;6.856;2023-05-09T00:49:07;23.00;;;11.90;;
5042;SDS011;2540;50.928;6.856;2023-05-09T00:51:33;20.90;;;13.87;;
5042;SDS011;2540;50.928;6.856;2023-05-09T00:54:00;23.40;;;14.67;;
5042;SDS011;2540;50.928;6.856;2023-05-09T00:56:26;22.93;;;13.00;;
5042;SDS011;2540;50.928;6.856;2023-05-09T00:58:51;21.93;;;13.93;;
5042;SDS011;2540;50.928;6.856;2023-05-09T01:01:17;20.10;;;13.23;;
5042;SDS011;2540;50.928;6.856;2023-05-09T01:03:43;22.20;;;14.00;;
5042;SDS011;2540;50.928;6.856;2023-05-09T01:06:12;25.17;;;16.13;;
5042;SDS011;2540;50.928;6.856;2023-05-09T01:08:43;24.90;;;16.00;;
5042;SDS011;2540;50.928;6.856;2023-05-09T01:14:07;31.27;;;15.87;;
5042;SDS011;2540;50.928;6.856;2023-05-09T01:22:06;31.57;;;17.00;;
5042;SDS011;2540;50.928;6.856;2023-05-09T01:24:38;25.53;;;15.43;;
5042;SDS011;2540;50.928;6.856;2023-05-09T01:29:43;28.73;;;16.77;;
5042;SDS011;2540;50.928;6.856;2023-05-09T01:32:12;26.50;;;18.10;;
5042;SDS011;2540;50.928;6.856;2023-05-09T01:34:40;26.67;;;17.43;;
5042;SDS011;2540;50.928;6.856;2023-05-09T01:37:07;26.00;;;17.13;;
5042;SDS011;2540;50.928;6.856;2023-05-09T01:39:33;27.87;;;15.90;;
5042;SDS011;2540;50.928;6.856;2023-05-09T01:42:03;24.27;;;16.00;;
5042;SDS011;2540;50.928;6.856;2023-05-09T01:44:34;31.40;;;16.03;;
5042;SDS011;2540;50.928;6.856;2023-05-09T01:47:02;22.80;;;14.43;;
5042;SDS011;2540;50.928;6.856;2023-05-09T01:49:29;22.90;;;14.10;;
5042;SDS011;2540;50.928;6.856;2023-05-09T01:51:56;20.80;;;13.80;;
5042;SDS011;2540;50.928;6.856;2023-05-09T01:54:22;21.90;;;14.27;;
5042;SDS011;2540;50.928;6.856;2023-05-09T01:56:52;21.83;;;14.60;;
5042;SDS011;2540;50.928;6.856;2023-05-09T01:59:18;23.00;;;14.00;;
5042;SDS011;2540;50.928;6.856;2023-05-09T02:01:44;19.13;;;13.53;;
5042;SDS011;2540;50.928;6.856;2023-05-09T02:04:11;19.07;;;13.67;;
5042;SDS011;2540;50.928;6.856;2023-05-09T02:06:38;28.10;;;13.07;;
5042;SDS011;2540;50.928;6.856;2023-05-09T02:09:03;21.40;;;13.30;;
5042;SDS011;2540;50.928;6.856;2023-05-09T02:11:29;24.43;;;14.60;;
5042;SDS011;2540;50.928;6.856;2023-05-09T02:13:54;25.77;;;14.90;;
5042;SDS011;2540;50.928;6.856;2023-05-09T02:16:20;23.73;;;14.23;;
5042;SDS011;2540;50.928;6.856;2023-05-09T02:18:45;19.13;;;13.17;;
5042;SDS011;2540;50.928;6.856;2023-05-09T02:21:11;17.90;;;11.77;;
5042;SDS011;2540;50.928;6.856;2023-05-09T02:23:36;21.13;;;12.80;;
5042;SDS011;2540;50.928;6.856;2023-05-09T02:26:02;28.37;;;13.80;;
5042;SDS011;2540;50.928;6.856;2023-05-09T02:28:27;24.27;;;13.27;;
5042;SDS011;2540;50.928;6.856;2023-05-09T02:30:54;22.13;;;13.00;;
5042;SDS011;2540;50.928;6.856;2023-05-09T02:33:20;26.50;;;14.33;;
5042;SDS011;2540;50.928;6.856;2023-05-09T02:35:46;21.40;;;13.20;;
5042;SDS011;2540;50.928;6.856;2023-05-09T02:38:12;19.30;;;14.20;;
5042;SDS011;2540;50.928;6.856;2023-05-09T02:40:37;26.87;;;14.67;;
5042;SDS011;2540;50.928;6.856;2023-05-09T02:43:03;24.47;;;14.87;;
5042;SDS011;2540;50.928;6.856;2023-05-09T02:45:28;21.90;;;14.03;;
5042;SDS011;2540;50.928;6.856;2023-05-09T02:47:54;21.00;;;12.57;;
5042;SDS011;2540;50.928;6.856;2023-05-09T02:50:19;24.63;;;13.40;;
5042;SDS011;2540;50.928;6.856;2023-05-09T02:52:45;23.80;;;14.80;;
5042;SDS011;2540;50.928;6.856;2023-05-09T02:55:10;23.77;;;14.80;;
5042;SDS011;2540;50.928;6.856;2023-05-09T02:57:36;27.17;;;14.60;;
5042;SDS011;2540;50.928;6.856;2023-05-09T03:00:02;26.60;;;14.20;;
5042;SDS011;2540;50.928;6.856;2023-05-09T03:02:28;23.60;;;15.00;;
5042;SDS011;2540;50.928;6.856;2023-05-09T03:04:54;21.60;;;14.30;;
5042;SDS011;2540;50.928;6.856;2023-05-09T03:07:19;20.70;;;14.03;;
5042;SDS011;2540;50.928;6.856;2023-05-09T03:09:44;22.00;;;13.70;;
5042;SDS011;2540;50.928;6.856;2023-05-09T03:12:10;21.20;;;13.30;;
5042;SDS011;2540;50.928;6.856;2023-05-09T03:14:35;27.37;;;14.80;;
5042;SDS011;2540;50.928;6.856;2023-05-09T03:17:01;20.70;;;14.60;;
5042;SDS011;2540;50.928;6.856;2023-05-09T03:19:26;22.23;;;13.70;;
5042;SDS011;2540;50.928;6.856;2023-05-09T03:21:52;24.03;;;14.77;;
5042;SDS011;2540;50.928;6.856;2023-05-09T03:24:17;19.30;;;13.20;;
5042;SDS011;2540;50.928;6.856;2023-05-09T03:26:42;20.83;;;14.80;;
5042;SDS011;2540;50.928;6.856;2023-05-09T03:29:08;27.57;;;14.53;;
5042;SDS011;2540;50.928;6.856;2023-05-09T03:31:33;27.27;;;14.83;;
5042;SDS011;2540;50.928;6.856;2023-05-09T03:33:59;25.00;;;14.53;;
5042;SDS011;2540;50.928;6.856;2023-05-09T03:36:24;23.20;;;14.47;;
5042;SDS011;2540;50.928;6.856;2023-05-09T03:38:50;21.40;;;14.80;;
5042;SDS011;2540;50.928;6.856;2023-05-09T03:41:16;26.47;;;14.60;;
5042;SDS011;2540;50.928;6.856;2023-05-09T03:43:41;23.40;;;15.47;;
5042;SDS011;2540;50.928;6.856;2023-05-09T03:46:07;27.80;;;16.60;;
5042;SDS011;2540;50.928;6.856;2023-05-09T03:48:33;26.10;;;16.87;;
5042;SDS011;2540;50.928;6.856;2023-05-09T03:50:59;28.20;;;17.47;;
5042;SDS011;2540;50.928;6.856;2023-05-09T03:53:24;25.83;;;17.00;;
5042;SDS011;2540;50.928;6.856;2023-05-09T03:55:49;25.33;;;17.43;;
5042;SDS011;2540;50.928;6.856;2023-05-09T03:58:15;30.37;;;16.97;;
5042;SDS011;2540;50.928;6.856;2023-05-09T04:00:43;30.90;;;16.87;;
5042;SDS011;2540;50.928;6.856;2023-05-09T04:03:08;28.17;;;18.63;;
5042;SDS011;2540;50.928;6.856;2023-05-09T04:05:33;26.70;;;16.80;;
5042;SDS011;2540;50.928;6.856;2023-05-09T04:07:59;28.60;;;17.97;;
5042;SDS011;2540;50.928;6.856;2023-05-09T04:10:24;28.30;;;18.23;;
5042;SDS011;2540;50.928;6.856;2023-05-09T04:12:50;24.53;;;17.30;;
5042;SDS011;2540;50.928;6.856;2023-05-09T04:15:16;27.67;;;17.07;;
5042;SDS011;2540;50.928;6.856;2023-05-09T04:17:41;25.20;;;16.03;;
5042;SDS011;2540;50.928;6.856;2023-05-09T04:20:08;28.53;;;17.90;;
5042;SDS011;2540;50.928;6.856;2023-05-09T04:22:34;32.40;;;18.20;;
5042;SDS011;2540;50.928;6.856;2023-05-09T04:25:00;30.90;;;18.70;;
5042;SDS011;2540;50.928;6.856;2023-05-09T04:27:26;34.73;;;17.80;;
5042;SDS011;2540;50.928;6.856;2023-05-09T04:29:52;31.70;;;18.30;;
5042;SDS011;2540;50.928;6.856;2023-05-09T04:32:17;28.23;;;18.17;;
5042;SDS011;2540;50.928;6.856;2023-05-09T04:34:44;33.30;;;19.17;;
5042;SDS011;2540;50.928;6.856;2023-05-09T04:37:10;30.70;;;18.00;;
5042;SDS011;2540;50.928;6.856;2023-05-09T04:39:37;28.70;;;18.07;;
5042;SDS011;2540;50.928;6.856;2023-05-09T04:42:02;27.97;;;17.30;;
5042;SDS011;2540;50.928;6.856;2023-05-09T04:44:28;33.03;;;18.50;;
5042;SDS011;2540;50.928;6.856;2023-05-09T04:46:53;39.87;;;19.93;;
5042;SDS011;2540;50.928;6.856;2023-05-09T04:49:19;36.83;;;19.70;;
5042;SDS011;2540;50.928;6.856;2023-05-09T04:51:45;33.73;;;20.37;;
5042;SDS011;2540;50.928;6.856;2023-05-09T04:54:10;33.50;;;19.90;;
5042;SDS011;2540;50.928;6.856;2023-05-09T04:56:35;32.93;;;19.70;;
5042;SDS011;2540;50.928;6.856;2023-05-09T04:59:01;30.97;;;21.60;;
5042;SDS011;2540;50.928;6.856;2023-05-09T05:01:26;31.40;;;19.33;;
5042;SDS011;2540;50.928;6.856;2023-05-09T05:03:52;27.30;;;18.77;;
5042;SDS011;2540;50.928;6.856;2023-05-09T05:06:17;33.13;;;19.00;;
5042;SDS011;2540;50.928;6.856;2023-05-09T05:08:42;27.53;;;18.57;;
5042;SDS011;2540;50.928;6.856;2023-05-09T05:11:08;35.03;;;19.70;;
5042;SDS011;2540;50.928;6.856;2023-05-09T05:13:34;36.20;;;20.30;;
5042;SDS011;2540;50.928;6.856;2023-05-09T05:15:59;30.20;;;18.50;;
5042;SDS011;2540;50.928;6.856;2023-05-09T05:18:25;30.63;;;19.20;;
5042;SDS011;2540;50.928;6.856;2023-05-09T05:20:50;31.53;;;18.50;;
5042;SDS011;2540;50.928;6.856;2023-05-09T05:23:15;26.23;;;18.63;;
5042;SDS011;2540;50.928;6.856;2023-05-09T05:25:42;34.00;;;19.20;;
5042;SDS011;2540;50.928;6.856;2023-05-09T05:28:07;32.63;;;20.07;;
5042;SDS011;2540;50.928;6.856;2023-05-09T05:30:33;41.60;;;19.57;;
5042;SDS011;2540;50.928;6.856;2023-05-09T05:32:58;27.33;;;18.70;;
5042;SDS011;2540;50.928;6.856;2023-05-09T05:35:23;31.93;;;17.93;;
5042;SDS011;2540;50.928;6.856;2023-05-09T05:37:49;31.83;;;18.80;;
5042;SDS011;2540;50.928;6.856;2023-05-09T05:40:14;27.60;;;18.20;;
5042;SDS011;2540;50.928;6.856;2023-05-09T05:42:40;30.80;;;18.87;;
5042;SDS011;2540;50.928;6.856;2023-05-09T05:45:05;27.50;;;18.30;;
5042;SDS011;2540;50.928;6.856;2023-05-09T05:47:32;30.03;;;18.00;;
5042;SDS011;2540;50.928;6.856;2023-05-09T05:49:58;30.37;;;19.03;;
5042;SDS011;2540;50.928;6.856;2023-05-09T05:52:24;29.37;;;18.90;;
5042;SDS011;2540;50.928;6.856;2023-05-09T05:54:51;31.73;;;18.73;;
5042;SDS011;2540;50.928;6.856;2023-05-09T05:57:17;31.43;;;17.43;;
5042;SDS011;2540;50.928;6.856;2023-05-09T05:59:42;32.90;;;19.83;;
5042;SDS011;2540;50.928;6.856;2023-05-09T06:02:08;29.83;;;19.87;;
5042;SDS011;2540;50.928;6.856;2023-05-09T06:04:33;33.33;;;18.80;;
5042;SDS011;2540;50.928;6.856;2023-05-09T06:06:59;34.17;;;20.10;;
5042;SDS011;2540;50.928;6.856;2023-05-09T06:09:24;28.17;;;17.27;;
5042;SDS011;2540;50.928;6.856;2023-05-09T06:11:50;30.67;;;19.53;;
5042;SDS011;2540;50.928;6.856;2023-05-09T06:14:15;27.37;;;18.07;;
5042;SDS011;2540;50.928;6.856;2023-05-09T06:16:40;30.43;;;18.60;;
5042;SDS011;2540;50.928;6.856;2023-05-09T06:19:06;41.67;;;18.40;;
5042;SDS011;2540;50.928;6.856;2023-05-09T06:21:31;33.07;;;18.37;;
5042;SDS011;2540;50.928;6.856;2023-05-09T06:23:58;26.80;;;17.50;;
5042;SDS011;2540;50.928;6.856;2023-05-09T06:26:23;25.93;;;17.20;;
5042;SDS011;2540;50.928;6.856;2023-05-09T06:28:50;25.63;;;16.40;;
5042;SDS011;2540;50.928;6.856;2023-05-09T06:31:15;24.00;;;15.40;;
5042;SDS011;2540;50.928;6.856;2023-05-09T06:33:40;27.43;;;16.00;;
5042;SDS011;2540;50.928;6.856;2023-05-09T06:36:06;21.23;;;15.30;;
5042;SDS011;2540;50.928;6.856;2023-05-09T06:38:32;23.00;;;13.97;;
5042;SDS011;2540;50.928;6.856;2023-05-09T06:40:58;25.63;;;15.17;;
5042;SDS011;2540;50.928;6.856;2023-05-09T06:43:24;22.40;;;15.27;;
5042;SDS011;2540;50.928;6.856;2023-05-09T06:45:49;24.50;;;15.90;;
5042;SDS011;2540;50.928;6.856;2023-05-09T06:48:14;25.47;;;14.50;;
5042;SDS011;2540;50.928;6.856;2023-05-09T06:50:40;25.33;;;13.13;;
5042;SDS011;2540;50.928;6.856;2023-05-09T06:53:05;25.33;;;14.33;;
5042;SDS011;2540;50.928;6.856;2023-05-09T06:55:31;18.43;;;13.10;;
5042;SDS011;2540;50.928;6.856;2023-05-09T06:57:56;23.40;;;11.77;;
5042;SDS011;2540;50.928;6.856;2023-05-09T07:00:21;18.53;;;12.50;;
5042;SDS011;2540;50.928;6.856;2023-05-09T07:02:47;15.87;;;11.90;;
5042;SDS011;2540;50.928;6.856;2023-05-09T07:05:12;21.00;;;11.23;;
5042;SDS011;2540;50.928;6.856;2023-05-09T07:07:38;17.00;;;9.90;;
5042;SDS011;2540;50.928;6.856;2023-05-09T07:10:04;16.00;;;9.50;;
5042;SDS011;2540;50.928;6.856;2023-05-09T07:12:30;12.90;;;9.60;;
5042;SDS011;2540;50.928;6.856;2023-05-09T07:14:56;8.93;;;6.50;;
5042;SDS011;2540;50.928;6.856;2023-05-09T07:17:21;9.00;;;5.40;;
5042;SDS011;2540;50.928;6.856;2023-05-09T07:19:48;7.63;;;4.80;;
5042;SDS011;2540;50.928;6.856;2023-05-09T07:22:14;8.23;;;4.83;;
5042;SDS011;2540;50.928;6.856;2023-05-09T07:24:39;6.73;;;5.33;;
5042;SDS011;2540;50.928;6.856;2023-05-09T07:27:04;11.27;;;5.13;;
5042;SDS011;2540;50.928;6.856;2023-05-09T07:29:30;7.87;;;5.07;;
5042;SDS011;2540;50.928;6.856;2023-05-09T07:31:55;7.73;;;4.83;;
5042;SDS011;2540;50.928;6.856;2023-05-09T07:34:20;6.50;;;5.37;;
5042;SDS011;2540;50.928;6.856;2023-05-09T07:36:47;7.23;;;5.20;;
5042;SDS011;2540;50.928;6.856;2023-05-09T07:39:13;6.70;;;4.30;;
5042;SDS011;2540;50.928;6.856;2023-05-09T07:41:38;6.40;;;4.17;;
5042;SDS011;2540;50.928;6.856;2023-05-09T07:44:04;5.93;;;4.10;;
5042;SDS011;2540;50.928;6.856;2023-05-09T07:46:29;9.23;;;4.73;;
5042;SDS011;2540;50.928;6.856;2023-05-09T07:48:54;4.83;;;4.03;;
5042;SDS011;2540;50.928;6.856;2023-05-09T07:51:20;5.60;;;3.93;;
5042;SDS011;2540;50.928;6.856;2023-05-09T07:53:45;6.60;;;4.23;;
5042;SDS011;2540;50.928;6.856;2023-05-09T07:56:11;7.90;;;5.03;;
5042;SDS011;2540;50.928;6.856;2023-05-09T07:58:37;6.13;;;4.00;;
5042;SDS011;2540;50.928;6.856;2023-05-09T08:01:02;12.93;;;4.47;;
5042;SDS011;2540;50.928;6.856;2023-05-09T08:03:28;10.47;;;4.30;;
5042;SDS011;2540;50.928;6.856;2023-05-09T08:05:53;6.27;;;3.70;;
5042;SDS011;2540;50.928;6.856;2023-05-09T08:08:20;4.97;;;3.77;;
5042;SDS011;2540;50.928;6.856;2023-05-09T08:10:46;6.67;;;4.23;;
5042;SDS011;2540;50.928;6.856;2023-05-09T08:13:11;5.03;;;3.70;;
5042;SDS011;2540;50.928;6.856;2023-05-09T08:15:36;5.60;;;3.90;;
5042;SDS011;2540;50.928;6.856;2023-05-09T08:18:02;6.03;;;3.40;;
5042;SDS011;2540;50.928;6.856;2023-05-09T08:20:27;10.30;;;4.60;;
5042;SDS011;2540;50.928;6.856;2023-05-09T08:22:53;9.03;;;3.30;;
5042;SDS011;2540;50.928;6.856;2023-05-09T08:25:18;4.07;;;3.00;;
5042;SDS011;2540;50.928;6.856;2023-05-09T08:27:44;5.43;;;3.70;;
5042;SDS011;2540;50.928;6.856;2023-05-09T08:30:10;3.80;;;3.17;;
5042;SDS011;2540;50.928;6.856;2023-05-09T08:32:36;5.17;;;3.80;;
5042;SDS011;2540;50.928;6.856;2023-05-09T08:35:01;9.87;;;3.90;;
5042;SDS011;2540;50.928;6.856;2023-05-09T08:37:27;4.33;;;2.90;;
5042;SDS011;2540;50.928;6.856;2023-05-09T08:39:53;6.23;;;2.70;;
5042;SDS011;2540;50.928;6.856;2023-05-09T08:42:18;3.77;;;2.63;;
5042;SDS011;2540;50.928;6.856;2023-05-09T08:44:46;14.80;;;2.87;;
5042;SDS011;2540;50.928;6.856;2023-05-09T08:47:12;7.27;;;2.53;;
5042;SDS011;2540;50.928;6.856;2023-05-09T08:49:38;3.70;;;2.30;;
5042;SDS011;2540;50.928;6.856;2023-05-09T08:52:04;4.60;;;2.70;;
5042;SDS011;2540;50.928;6.856;2023-05-09T08:54:30;4.53;;;2.87;;
5042;SDS011;2540;50.928;6.856;2023-05-09T08:56:55;4.80;;;3.00;;
5042;SDS011;2540;50.928;6.856;2023-05-09T08:59:21;4.20;;;2.93;;
5042;SDS011;2540;50.928;6.856;2023-05-09T09:01:47;3.97;;;2.70;;
5042;SDS011;2540;50.928;6.856;2023-05-09T09:04:12;4.93;;;2.70;;
5042;SDS011;2540;50.928;6.856;2023-05-09T09:06:38;3.70;;;2.70;;
5042;SDS011;2540;50.928;6.856;2023-05-09T09:09:07;6.63;;;3.70;;
5042;SDS011;2540;50.928;6.856;2023-05-09T09:11:33;3.60;;;2.43;;
5042;SDS011;2540;50.928;6.856;2023-05-09T09:14:00;2.47;;;2.27;;
5042;SDS011;2540;50.928;6.856;2023-05-09T09:16:28;12.70;;;2.20;;
5042;SDS011;2540;50.928;6.856;2023-05-09T09:18:55;3.80;;;2.80;;
5042;SDS011;2540;50.928;6.856;2023-05-09T09:21:22;3.57;;;2.17;;
5042;SDS011;2540;50.928;6.856;2023-05-09T09:23:47;3.30;;;2.23;;
5042;SDS011;2540;50.928;6.856;2023-05-09T09:26:13;5.10;;;2.80;;
5042;SDS011;2540;50.928;6.856;2023-05-09T09:28:39;2.90;;;2.60;;
5042;SDS011;2540;50.928;6.856;2023-05-09T09:33:57;5.33;;;2.67;;
5042;SDS011;2540;50.928;6.856;2023-05-09T09:36:30;2.97;;;2.50;;
5042;SDS011;2540;50.928;6.856;2023-05-09T09:38:59;12.30;;;2.90;;
5042;SDS011;2540;50.928;6.856;2023-05-09T09:41:32;7.90;;;2.30;;
5042;SDS011;2540;50.928;6.856;2023-05-09T09:44:05;4.57;;;2.47;;
5042;SDS011;2540;50.928;6.856;2023-05-09T09:49:07;8.63;;;2.50;;
5042;SDS011;2540;50.928;6.856;2023-05-09T09:51:34;6.40;;;2.53;;
5042;SDS011;2540;50.928;6.856;2023-05-09T09:54:00;4.70;;;2.40;;
5042;SDS011;2540;50.928;6.856;2023-05-09T09:56:42;4.00;;;2.37;;
5042;SDS011;2540;50.928;6.856;2023-05-09T10:01:53;3.67;;;2.50;;
5042;SDS011;2540;50.928;6.856;2023-05-09T10:04:32;3.30;;;2.40;;
5042;SDS011;2540;50.928;6.856;2023-05-09T10:07:01;10.77;;;2.80;;
5042;SDS011;2540;50.928;6.856;2023-05-09T10:09:29;4.20;;;2.47;;
5042;SDS011;2540;50.928;6.856;2023-05-09T10:11:55;8.80;;;2.50;;
5042;SDS011;2540;50.928;6.856;2023-05-09T10:14:22;9.73;;;2.37;;
5042;SDS011;2540;50.928;6.856;2023-05-09T10:16:49;6.00;;;2.50;;
5042;SDS011;2540;50.928;6.856;2023-05-09T10:19:16;4.03;;;2.70;;
5042;SDS011;2540;50.928;6.856;2023-05-09T10:21:44;2.47;;;2.00;;
5042;SDS011;2540;50.928;6.856;2023-05-09T10:24:15;3.40;;;2.63;;
5042;SDS011;2540;50.928;6.856;2023-05-09T10:26:42;13.93;;;4.30;;
5042;SDS011;2540;50.928;6.856;2023-05-09T10:29:09;2.90;;;2.07;;
5042;SDS011;2540;50.928;6.856;2023-05-09T10:31:36;10.10;;;2.30;;
5042;SDS011;2540;50.928;6.856;2023-05-09T10:34:04;3.43;;;2.43;;
5042;SDS011;2540;50.928;6.856;2023-05-09T10:36:34;2.70;;;2.00;;
5042;SDS011;2540;50.928;6.856;2023-05-09T10:39:00;8.60;;;2.67;;
5042;SDS011;2540;50.928;6.856;2023-05-09T10:41:26;8.30;;;2.50;;
5042;SDS011;2540;50.928;6.856;2023-05-09T10:43:51;7.83;;;2.80;;
5042;SDS011;2540;50.928;6.856;2023-05-09T10:46:21;4.67;;;2.57;;
5042;SDS011;2540;50.928;6.856;2023-05-09T10:48:47;2.73;;;2.10;;
5042;SDS011;2540;50.928;6.856;2023-05-09T10:51:13;3.70;;;2.30;;
5042;SDS011;2540;50.928;6.856;2023-05-09T10:56:21;2.90;;;2.30;;
5042;SDS011;2540;50.928;6.856;2023-05-09T10:58:51;6.73;;;2.30;;
5042;SDS011;2540;50.928;6.856;2023-05-09T11:01:32;4.13;;;2.30;;
5042;SDS011;2540;50.928;6.856;2023-05-09T11:04:01;4.10;;;2.43;;
5042;SDS011;2540;50.928;6.856;2023-05-09T11:09:22;3.27;;;2.60;;
5042;SDS011;2540;50.928;6.856;2023-05-09T11:12:09;2.77;;;2.10;;
5042;SDS011;2540;50.928;6.856;2023-05-09T11:19:34;5.33;;;2.40;;
5042;SDS011;2540;50.928;6.856;2023-05-09T11:22:01;6.87;;;2.77;;
5042;SDS011;2540;50.928;6.856;2023-05-09T11:24:36;8.90;;;3.37;;
5042;SDS011;2540;50.928;6.856;2023-05-09T11:27:13;3.07;;;2.10;;
5042;SDS011;2540;50.928;6.856;2023-05-09T11:29:53;4.67;;;2.10;;
5042;SDS011;2540;50.928;6.856;2023-05-09T11:32:21;2.63;;;2.10;;
5042;SDS011;2540;50.928;6.856;2023-05-09T11:34:51;4.03;;;2.57;;
5042;SDS011;2540;50.928;6.856;2023-05-09T11:37:16;6.73;;;2.30;;
5042;SDS011;2540;50.928;6.856;2023-05-09T11:39:55;2.63;;;2.30;;
5042;SDS011;2540;50.928;6.856;2023-05-09T11:42:28;5.27;;;2.30;;
5042;SDS011;2540;50.928;6.856;2023-05-09T11:44:53;2.90;;;2.33;;
5042;SDS011;2540;50.928;6.856;2023-05-09T11:47:20;5.30;;;2.30;;
5042;SDS011;2540;50.928;6.856;2023-05-09T11:49:48;3.57;;;2.33;;
5042;SDS011;2540;50.928;6.856;2023-05-09T11:52:14;4.47;;;2.53;;
5042;SDS011;2540;50.928;6.856;2023-05-09T11:54:40;10.73;;;2.60;;
5042;SDS011;2540;50.928;6.856;2023-05-09T11:57:06;4.60;;;2.27;;
5042;SDS011;2540;50.928;6.856;2023-05-09T11:59:32;4.10;;;2.33;;
5042;SDS011;2540;50.928;6.856;2023-05-09T12:02:02;1.80;;;1.70;;
5042;SDS011;2540;50.928;6.856;2023-05-09T12:04:29;5.10;;;2.10;;
5042;SDS011;2540;50.928;6.856;2023-05-09T12:06:56;2.80;;;2.10;;
5042;SDS011;2540;50.928;6.856;2023-05-09T12:09:23;5.20;;;2.13;;
5042;SDS011;2540;50.928;6.856;2023-05-09T12:11:51;3.57;;;2.20;;
5042;SDS011;2540;50.928;6.856;2023-05-09T12:14:29;2.57;;;2.23;;
5042;SDS011;2540;50.928;6.856;2023-05-09T12:16:56;3.43;;;1.90;;
5042;SDS011;2540;50.928;6.856;2023-05-09T12:19:22;7.40;;;2.50;;
5042;SDS011;2540;50.928;6.856;2023-05-09T12:21:52;2.63;;;2.10;;
5042;SDS011;2540;50.928;6.856;2023-05-09T12:24:19;4.07;;;2.40;;
5042;SDS011;2540;50.928;6.856;2023-05-09T12:26:46;6.73;;;2.20;;
5042;SDS011;2540;50.928;6.856;2023-05-09T12:29:12;4.80;;;2.03;;
5042;SDS011;2540;50.928;6.856;2023-05-09T12:31:37;3.90;;;2.30;;
5042;SDS011;2540;50.928;6.856;2023-05-09T12:34:03;2.63;;;2.00;;
5042;SDS011;2540;50.928;6.856;2023-05-09T12:36:33;3.93;;;2.10;;
5042;SDS011;2540;50.928;6.856;2023-05-09T12:38:58;2.60;;;1.90;;
5042;SDS011;2540;50.928;6.856;2023-05-09T12:41:24;4.03;;;2.27;;
5042;SDS011;2540;50.928;6.856;2023-05-09T12:43:49;5.97;;;2.43;;
5042;SDS011;2540;50.928;6.856;2023-05-09T12:46:18;5.23;;;2.10;;
5042;SDS011;2540;50.928;6.856;2023-05-09T12:48:45;3.90;;;2.10;;
5042;SDS011;2540;50.928;6.856;2023-05-09T12:51:11;4.80;;;2.57;;
5042;SDS011;2540;50.928;6.856;2023-05-09T12:53:37;2.83;;;1.70;;
5042;SDS011;2540;50.928;6.856;2023-05-09T12:56:11;4.43;;;2.00;;
5042;SDS011;2540;50.928;6.856;2023-05-09T12:58:39;2.30;;;1.90;;
5042;SDS011;2540;50.928;6.856;2023-05-09T13:01:12;5.27;;;2.10;;
5042;SDS011;2540;50.928;6.856;2023-05-09T13:03:38;4.47;;;2.50;;
5042;SDS011;2540;50.928;6.856;2023-05-09T13:06:04;2.57;;;2.20;;
5042;SDS011;2540;50.928;6.856;2023-05-09T13:08:31;3.40;;;1.90;;
5042;SDS011;2540;50.928;6.856;2023-05-09T13:10:57;7.00;;;2.30;;
5042;SDS011;2540;50.928;6.856;2023-05-09T13:13:24;4.53;;;2.10;;
5042;SDS011;2540;50.928;6.856;2023-05-09T13:15:52;8.67;;;2.57;;
5042;SDS011;2540;50.928;6.856;2023-05-09T13:18:19;3.77;;;2.10;;
5042;SDS011;2540;50.928;6.856;2023-05-09T13:20:45;3.57;;;1.80;;
5042;SDS011;2540;50.928;6.856;2023-05-09T13:23:10;2.33;;;1.80;;
5042;SDS011;2540;50.928;6.856;2023-05-09T13:25:36;2.87;;;1.73;;
5042;SDS011;2540;50.928;6.856;2023-05-09T13:28:01;4.10;;;1.63;;
5042;SDS011;2540;50.928;6.856;2023-05-09T13:30:27;1.73;;;1.60;;
5042;SDS011;2540;50.928;6.856;2023-05-09T13:32:52;2.40;;;1.93;;
5042;SDS011;2540;50.928;6.856;2023-05-09T13:35:18;2.87;;;1.83;;
5042;SDS011;2540;50.928;6.856;2023-05-09T13:37:43;2.10;;;1.80;;
5042;SDS011;2540;50.928;6.856;2023-05-09T13:40:09;2.03;;;1.80;;
5042;SDS011;2540;50.928;6.856;2023-05-09T13:42:35;2.13;;;1.70;;
5042;SDS011;2540;50.928;6.856;2023-05-09T13:45:00;3.97;;;2.03;;
5042;SDS011;2540;50.928;6.856;2023-05-09T13:47:26;4.30;;;2.40;;
5042;SDS011;2540;50.928;6.856;2023-05-09T13:49:52;1.73;;;1.63;;
5042;SDS011;2540;50.928;6.856;2023-05-09T13:52:17;6.23;;;1.90;;
5042;SDS011;2540;50.928;6.856;2023-05-09T13:54:43;2.13;;;1.40;;
5042;SDS011;2540;50.928;6.856;2023-05-09T13:57:09;6.00;;;2.07;;
5042;SDS011;2540;50.928;6.856;2023-05-09T13:59:34;4.43;;;2.30;;
5042;SDS011;2540;50.928;6.856;2023-05-09T14:02:00;6.00;;;1.53;;
5042;SDS011;2540;50.928;6.856;2023-05-09T14:04:26;2.40;;;2.00;;
5042;SDS011;2540;50.928;6.856;2023-05-09T14:06:52;3.23;;;2.07;;
5042;SDS011;2540;50.928;6.856;2023-05-09T14:09:18;3.93;;;1.90;;
5042;SDS011;2540;50.928;6.856;2023-05-09T14:11:45;3.40;;;3.00;;
5042;SDS011;2540;50.928;6.856;2023-05-09T14:14:11;6.40;;;5.03;;
5042;SDS011;2540;50.928;6.856;2023-05-09T14:16:36;6.83;;;5.33;;
5042;SDS011;2540;50.928;6.856;2023-05-09T14:19:01;9.07;;;4.27;;
5042;SDS011;2540;50.928;6.856;2023-05-09T14:21:27;6.07;;;5.17;;
5042;SDS011;2540;50.928;6.856;2023-05-09T14:23:52;9.37;;;5.20;;
5042;SDS011;2540;50.928;6.856;2023-05-09T14:26:18;10.70;;;3.93;;
5042;SDS011;2540;50.928;6.856;2023-05-09T14:28:43;6.17;;;3.83;;
5042;SDS011;2540;50.928;6.856;2023-05-09T14:31:09;6.83;;;4.03;;
5042;SDS011;2540;50.928;6.856;2023-05-09T14:33:34;7.30;;;4.73;;
5042;SDS011;2540;50.928;6.856;2023-05-09T14:36:00;5.33;;;4.23;;
5042;SDS011;2540;50.928;6.856;2023-05-09T14:38:27;9.97;;;5.03;;
5042;SDS011;2540;50.928;6.856;2023-05-09T14:40:53;10.30;;;5.90;;
5042;SDS011;2540;50.928;6.856;2023-05-09T14:43:20;11.33;;;6.17;;
5042;SDS011;2540;50.928;6.856;2023-05-09T14:45:46;13.40;;;6.57;;
5042;SDS011;2540;50.928;6.856;2023-05-09T14:48:12;10.47;;;5.87;;
5042;SDS011;2540;50.928;6.856;2023-05-09T14:50:37;10.43;;;5.90;;
5042;SDS011;2540;50.928;6.856;2023-05-09T14:53:02;9.63;;;6.10;;
5042;SDS011;2540;50.928;6.856;2023-05-09T14:55:28;7.33;;;6.30;;
5042;SDS011;2540;50.928;6.856;2023-05-09T14:57:55;9.70;;;6.03;;
5042;SDS011;2540;50.928;6.856;2023-05-09T15:00:21;8.13;;;5.93;;
5042;SDS011;2540;50.928;6.856;2023-05-09T15:02:47;9.77;;;6.80;;
5042;SDS011;2540;50.928;6.856;2023-05-09T15:05:13;12.63;;;7.70;;
5042;SDS011;2540;50.928;6.856;2023-05-09T15:07:38;13.53;;;8.30;;
5042;SDS011;2540;50.928;6.856;2023-05-09T15:10:04;13.93;;;7.07;;
5042;SDS011;2540;50.928;6.856;2023-05-09T15:12:29;10.53;;;8.50;;
5042;SDS011;2540;50.928;6.856;2023-05-09T15:15:10;10.60;;;7.27;;
5042;SDS011;2540;50.928;6.856;2023-05-09T15:17:41;17.00;;;7.47;;
5042;SDS011;2540;50.928;6.856;2023-05-09T15:20:08;12.30;;;7.40;;
5042;SDS011;2540;50.928;6.856;2023-05-09T15:22:33;12.60;;;7.70;;
5042;SDS011;2540;50.928;6.856;2023-05-09T15:24:59;10.67;;;7.23;;